createdAt,value
2019-04-14T00:10:01.156Z,977.79
2019-04-14T00:25:02.399Z,977.68
2019-04-14T02:10:01.994Z,977.23
2019-04-14T03:20:28.034Z,976.93
2019-04-14T03:25:21.128Z,976.91
2019-04-14T03:36:06.282Z,976.88
2019-04-14T03:45:35.758Z,976.83
2019-04-14T03:55:15.991Z,976.87
2019-04-14T04:00:01.066Z,976.93
2019-04-14T04:05:02.230Z,976.95
2019-04-14T04:10:01.054Z,976.92
2019-04-14T04:15:01.965Z,976.89
2019-04-14T04:20:02.461Z,976.84
2019-04-14T04:25:01.118Z,976.81
2019-04-14T04:30:01.734Z,976.88
2019-04-14T04:35:02.198Z,976.80
2019-04-14T04:40:01.069Z,976.85
2019-04-14T04:45:01.776Z,976.87
2019-04-14T04:50:02.295Z,976.91
2019-04-14T04:55:02.492Z,976.95
2019-04-14T05:00:02.582Z,976.98
2019-04-14T05:05:01.327Z,976.95
2019-04-14T05:10:02.708Z,977.14
2019-04-14T05:15:01.365Z,977.14
2019-04-14T05:20:01.113Z,977.10
2019-04-14T05:25:01.612Z,977.19
2019-04-14T05:30:01.123Z,977.20
2019-04-14T05:35:01.056Z,977.26
2019-04-14T05:40:01.931Z,977.23
2019-04-14T05:45:02.431Z,977.31
2019-04-14T05:50:03.076Z,977.35
2019-04-14T05:55:02.474Z,977.40
2019-04-14T06:00:01.806Z,977.37
2019-04-14T06:05:01.544Z,977.36
2019-04-14T06:10:01.105Z,977.39
2019-04-14T06:15:01.521Z,977.33
2019-04-14T06:20:01.058Z,977.33
2019-04-14T06:25:01.099Z,977.37
2019-04-14T06:30:01.076Z,977.40
2019-04-14T06:35:01.435Z,977.44
2019-04-14T06:40:01.058Z,977.37
2019-04-14T06:45:01.063Z,977.44
2019-04-14T06:50:01.052Z,977.39
2019-04-14T06:55:01.091Z,977.55
2019-04-14T07:00:01.049Z,977.49
2019-04-14T07:05:01.529Z,977.56
2019-04-14T07:10:01.116Z,977.61
2019-04-14T07:15:01.272Z,977.56
2019-04-14T07:20:02.232Z,977.55
2019-04-14T07:25:01.095Z,977.71
2019-04-14T07:30:01.093Z,977.75
2019-04-14T07:35:01.091Z,977.70
2019-04-14T07:40:01.556Z,977.67
2019-04-14T07:45:01.293Z,977.61
2019-04-14T07:50:13.708Z,977.68
2019-04-14T07:55:01.064Z,977.66
2019-04-14T08:00:01.076Z,977.73
2019-04-14T08:05:01.084Z,977.75
2019-04-14T08:10:01.082Z,977.81
2019-04-14T08:15:01.383Z,977.82
2019-04-14T08:20:01.407Z,977.89
2019-04-14T08:25:01.546Z,977.84
2019-04-14T08:30:02.282Z,977.87
2019-04-14T08:35:01.075Z,977.85
2019-04-14T08:40:01.470Z,977.78
2019-04-14T08:45:01.370Z,977.78
2019-04-14T10:25:01.462Z,977.98
2019-04-14T10:30:01.088Z,977.99
2019-04-14T11:30:01.079Z,977.87
2019-04-14T11:35:01.441Z,977.98
